createdAt,value
2022-11-20T00:01:08.122Z,64.63
2022-11-20T00:02:10.589Z,64.54
2022-11-20T00:03:14.552Z,64.10
2022-11-20T00:04:19.438Z,63.68
2022-11-20T00:05:22.156Z,63.87
2022-11-20T00:06:26.008Z,63.74
2022-11-20T00:07:28.653Z,63.66
2022-11-20T00:08:32.262Z,63.67
2022-11-20T00:09:34.596Z,63.14
2022-11-20T00:10:38.617Z,63.79
2022-11-20T00:11:40.905Z,62.47
2022-11-20T00:12:44.168Z,62.40
2022-11-20T00:13:47.252Z,61.89
2022-11-20T00:14:50.554Z,61.93
2022-11-20T00:15:58.682Z,61.52
2022-11-20T00:17:02.091Z,62.74
2022-11-20T00:18:04.378Z,62.68
2022-11-20T00:19:07.626Z,62.50
2022-11-20T00:20:12.788Z,63.07
2022-11-20T00:21:18.286Z,64.01
2022-11-20T00:22:20.522Z,64.38
2022-11-20T00:23:23.840Z,62.62
2022-11-20T00:24:26.170Z,63.05
2022-11-20T00:25:29.525Z,62.01
2022-11-20T00:26:31.767Z,62.71
2022-11-20T00:27:35.257Z,63.31
2022-11-20T00:28:38.143Z,62.33
2022-11-20T00:29:41.629Z,63.44
2022-11-20T00:30:44.078Z,63.77
2022-11-20T00:31:47.570Z,61.64
2022-11-20T00:32:49.928Z,63.50
2022-11-20T00:33:53.956Z,63.21
2022-11-20T00:34:56.465Z,62.72
2022-11-20T00:36:05.024Z,62.72
2022-11-20T00:37:07.164Z,63.40
2022-11-20T00:38:10.307Z,63.90
2022-11-20T00:39:12.671Z,63.10
2022-11-20T00:40:16.098Z,63.31
2022-11-20T00:41:18.372Z,63.65
2022-11-20T00:42:21.882Z,63.33
2022-11-20T00:43:24.200Z,63.07
2022-11-20T00:44:27.568Z,61.97
2022-11-20T00:45:29.932Z,62.29
2022-11-20T00:46:33.405Z,62.86
2022-11-20T00:47:35.610Z,62.85
2022-11-20T00:48:39.085Z,62.87
2022-11-20T00:49:41.257Z,63.44
2022-11-20T00:50:44.583Z,63.86
2022-11-20T00:51:48.439Z,63.70
2022-11-20T00:52:51.623Z,62.56
2022-11-20T00:53:56.595Z,63.41
2022-11-20T00:54:59.909Z,62.99
2022-11-20T00:56:04.392Z,63.37
2022-11-20T00:57:07.654Z,62.96
2022-11-20T00:58:14.126Z,62.96
2022-11-20T00:59:17.840Z,62.87
2022-11-20T01:00:20.189Z,63.19
2022-11-20T01:01:26.374Z,63.52
2022-11-20T01:02:28.701Z,63.34
2022-11-20T01:03:33.747Z,63.85
2022-11-20T01:04:35.926Z,64.39
2022-11-20T01:05:39.321Z,63.96
2022-11-20T01:06:41.572Z,63.21
2022-11-20T01:07:46.344Z,63.39
2022-11-20T01:08:50.277Z,63.48
2022-11-20T01:09:53.672Z,63.59
2022-11-20T01:11:00.645Z,64.97
2022-11-20T01:12:03.888Z,64.51
2022-11-20T01:13:25.886Z,64.90
2022-11-20T01:14:29.235Z,64.30
2022-11-20T01:15:31.477Z,64.57
2022-11-20T01:16:37.203Z,64.66
2022-11-20T01:17:39.496Z,64.74
2022-11-20T01:18:44.748Z,64.62
2022-11-20T01:19:50.302Z,65.69
2022-11-20T01:20:53.614Z,65.10
2022-11-20T01:21:57.284Z,64.20
2022-11-20T01:23:00.852Z,64.89
2022-11-20T01:24:05.013Z,64.80
2022-11-20T01:25:07.672Z,62.73
2022-11-20T01:26:12.712Z,63.60
2022-11-20T01:27:15.962Z,62.99
2022-11-20T01:28:18.593Z,62.42
2022-11-20T01:29:24.365Z,62.49
2022-11-20T01:30:26.869Z,63.84
2022-11-20T01:31:31.604Z,63.21
2022-11-20T01:32:33.980Z,63.21
2022-11-20T01:33:37.404Z,63.09
2022-11-20T01:34:39.834Z,63.20
2022-11-20T01:35:43.048Z,63.92
2022-11-20T01:36:45.650Z,62.50
2022-11-20T01:37:49.159Z,63.31
2022-11-20T01:38:54.588Z,62.41
2022-11-20T01:39:58.067Z,63.56
2022-11-20T01:41:00.416Z,63.27
2022-11-20T01:42:21.538Z,64.26
2022-11-20T01:43:24.043Z,62.88
2022-11-20T01:44:51.245Z,64.30
2022-11-20T01:46:15.634Z,63.35
2022-11-20T01:47:21.464Z,63.47
2022-11-20T01:48:27.439Z,62.29
2022-11-20T01:49:35.710Z,62.53
2022-11-20T01:50:39.204Z,63.57
2022-11-20T01:51:45.561Z,64.01
2022-11-20T01:52:53.471Z,62.85
2022-11-20T01:54:01.313Z,62.94
2022-11-20T01:55:08.775Z,63.13
2022-11-20T01:56:14.931Z,63.97
2022-11-20T01:57:21.603Z,63.26
2022-11-20T01:58:29.865Z,62.97
2022-11-20T01:59:33.349Z,62.81
2022-11-20T02:00:36.050Z,62.49
2022-11-20T02:01:40.291Z,62.06
2022-11-20T02:02:47.148Z,63.75
2022-11-20T02:03:51.775Z,61.65
2022-11-20T02:04:58.548Z,62.74
2022-11-20T02:06:11.013Z,61.37
2022-11-20T02:07:13.908Z,61.24
2022-11-20T02:08:18.330Z,61.09
2022-11-20T02:09:22.403Z,62.91
2022-11-20T02:10:26.207Z,61.14
2022-11-20T02:11:29.225Z,61.23
2022-11-20T02:12:49.907Z,62.22
2022-11-20T02:13:53.371Z,60.63
2022-11-20T02:14:55.680Z,60.20
2022-11-20T02:15:58.110Z,61.48
2022-11-20T02:17:01.259Z,59.42
2022-11-20T02:18:03.784Z,58.73
2022-11-20T02:19:12.152Z,59.31
2022-11-20T02:20:14.693Z,59.19
2022-11-20T02:21:27.593Z,59.87
2022-11-20T02:22:35.434Z,58.24
2022-11-20T02:23:41.852Z,58.34
2022-11-20T02:24:47.680Z,58.94
2022-11-20T02:25:53.755Z,59.60
2022-11-20T02:27:01.309Z,58.51
2022-11-20T02:28:04.135Z,58.12
2022-11-20T02:29:07.707Z,57.47
2022-11-20T02:30:12.237Z,56.83
2022-11-20T02:31:15.477Z,58.40
2022-11-20T02:32:22.080Z,57.20
2022-11-20T02:33:25.667Z,56.64
2022-11-20T02:34:27.974Z,56.60
2022-11-20T02:35:47.487Z,56.11
2022-11-20T02:36:50.843Z,56.95
2022-11-20T02:37:57.236Z,56.61
2022-11-20T02:38:59.570Z,56.97
2022-11-20T02:40:04.930Z,56.56
2022-11-20T02:41:07.157Z,55.86
2022-11-20T02:42:10.475Z,56.34
2022-11-20T02:43:13.064Z,56.15
2022-11-20T02:44:16.287Z,55.83
2022-11-20T02:45:18.667Z,55.89
2022-11-20T02:46:22.105Z,55.70
2022-11-20T02:47:24.390Z,55.84
2022-11-20T02:48:30.215Z,55.43
2022-11-20T02:49:35.836Z,55.49
2022-11-20T02:50:41.011Z,57.01
2022-11-20T02:51:44.261Z,56.13
2022-11-20T02:52:46.420Z,55.81
2022-11-20T02:53:49.805Z,55.50
2022-11-20T02:54:52.124Z,54.73
2022-11-20T02:55:56.724Z,54.73
2022-11-20T02:56:58.969Z,56.31
2022-11-20T02:58:02.264Z,55.29
2022-11-20T02:59:05.628Z,54.88
2022-11-20T03:00:10.138Z,55.45
2022-11-20T03:01:12.384Z,55.36
2022-11-20T03:02:16.299Z,54.75
2022-11-20T03:03:18.569Z,55.82
2022-11-20T03:04:22.360Z,55.44
2022-11-20T03:05:24.610Z,54.66
2022-11-20T03:06:27.995Z,54.46
2022-11-20T03:07:30.300Z,55.28
2022-11-20T03:08:33.858Z,55.66
2022-11-20T03:09:36.107Z,54.62
2022-11-20T03:10:39.379Z,55.57
2022-11-20T03:11:43.495Z,56.16
2022-11-20T03:12:46.820Z,54.62
2022-11-20T03:13:50.086Z,55.59
2022-11-20T03:14:53.411Z,55.10
2022-11-20T03:15:56.905Z,54.75
2022-11-20T03:16:59.326Z,54.48
2022-11-20T03:18:02.740Z,55.53
2022-11-20T03:19:06.232Z,55.11
2022-11-20T03:20:10.186Z,55.75
2022-11-20T03:21:15.128Z,55.42
2022-11-20T03:22:17.527Z,54.87
2022-11-20T03:23:21.056Z,54.91
2022-11-20T03:24:23.324Z,53.38
2022-11-20T03:25:26.702Z,54.66
2022-11-20T03:26:29.579Z,53.90
2022-11-20T03:27:36.683Z,52.80
2022-11-20T03:28:39.225Z,52.36
2022-11-20T03:29:42.703Z,54.33
2022-11-20T03:30:44.908Z,53.00
2022-11-20T03:31:48.252Z,53.65
2022-11-20T03:32:50.459Z,52.50
2022-11-20T03:33:53.824Z,53.68
2022-11-20T03:34:56.007Z,52.62
2022-11-20T03:36:03.842Z,52.46
2022-11-20T03:37:07.128Z,52.38
2022-11-20T03:38:09.380Z,52.04
2022-11-20T03:39:13.094Z,52.25
2022-11-20T03:40:15.595Z,52.69
2022-11-20T03:41:20.787Z,52.11
2022-11-20T03:42:41.352Z,53.17
2022-11-20T03:43:49.953Z,53.77
2022-11-20T03:44:52.206Z,52.74
2022-11-20T03:45:55.667Z,52.85
2022-11-20T03:46:57.879Z,53.35
2022-11-20T03:48:01.208Z,53.55
2022-11-20T03:49:04.025Z,53.04
2022-11-20T03:50:08.132Z,51.44
2022-11-20T03:51:12.288Z,53.70
2022-11-20T03:52:15.702Z,52.06
2022-11-20T03:53:18.344Z,53.64
2022-11-20T03:54:21.741Z,52.31
2022-11-20T03:55:24.195Z,52.48
2022-11-20T03:56:28.964Z,53.03
2022-11-20T03:57:31.125Z,51.35
2022-11-20T03:58:35.530Z,51.65
2022-11-20T03:59:39.250Z,51.85
2022-11-20T04:00:42.616Z,52.06
2022-11-20T04:01:49.304Z,52.44
2022-11-20T04:02:52.975Z,51.17
2022-11-20T04:03:57.122Z,51.24
2022-11-20T04:05:00.496Z,53.00
2022-11-20T04:06:04.700Z,52.73
2022-11-20T04:07:08.495Z,53.18
2022-11-20T04:08:10.937Z,52.93
2022-11-20T04:09:15.532Z,53.04
2022-11-20T04:10:18.514Z,52.59
2022-11-20T04:11:23.543Z,52.08
2022-11-20T04:12:26.105Z,51.81
2022-11-20T04:13:29.539Z,51.80
2022-11-20T04:14:31.918Z,51.86
2022-11-20T04:15:38.459Z,51.94
2022-11-20T04:16:41.441Z,52.07
2022-11-20T04:17:44.978Z,52.08
2022-11-20T04:18:47.385Z,50.78
2022-11-20T04:19:50.841Z,53.17
2022-11-20T04:20:53.036Z,52.91
2022-11-20T04:21:56.263Z,50.57
2022-11-20T04:22:58.483Z,50.77
2022-11-20T04:24:01.713Z,51.09
2022-11-20T04:25:04.581Z,51.53
2022-11-20T04:26:10.941Z,52.53
2022-11-20T04:27:13.049Z,51.32
2022-11-20T04:28:16.431Z,50.51
2022-11-20T04:29:19.255Z,50.73
2022-11-20T04:30:23.094Z,50.50
2022-11-20T04:31:28.859Z,50.23
2022-11-20T04:32:32.230Z,50.56
2022-11-20T04:33:35.618Z,50.65
2022-11-20T04:34:39.115Z,51.12
2022-11-20T04:35:41.612Z,51.46
2022-11-20T04:36:44.969Z,51.85
2022-11-20T04:37:47.833Z,49.99
2022-11-20T04:38:56.745Z,52.40
2022-11-20T04:39:59.883Z,51.45
2022-11-20T04:41:05.307Z,50.18
2022-11-20T04:42:27.797Z,49.88
2022-11-20T04:43:31.639Z,49.18
2022-11-20T04:44:33.877Z,49.84
2022-11-20T04:45:37.091Z,49.75
2022-11-20T04:46:43.485Z,50.78
2022-11-20T04:47:46.681Z,50.96
2022-11-20T04:48:49.406Z,49.82
2022-11-20T04:49:52.798Z,49.05
2022-11-20T04:50:55.278Z,50.64
2022-11-20T04:51:58.523Z,49.39
2022-11-20T04:53:01.048Z,50.98
2022-11-20T04:54:04.631Z,49.69
2022-11-20T04:55:08.155Z,50.39
2022-11-20T04:56:13.711Z,50.18
2022-11-20T04:57:16.610Z,50.82
2022-11-20T04:58:20.078Z,50.48
2022-11-20T04:59:22.782Z,51.26
2022-11-20T05:00:26.867Z,50.24
2022-11-20T05:01:29.724Z,48.72
2022-11-20T05:02:34.893Z,50.16
2022-11-20T05:03:42.016Z,50.87
2022-11-20T05:04:45.737Z,49.85
2022-11-20T05:05:48.025Z,49.60
2022-11-20T05:06:52.073Z,48.65
2022-11-20T05:07:54.381Z,49.64
2022-11-20T05:08:57.622Z,48.99
2022-11-20T05:09:59.950Z,49.42
2022-11-20T05:11:04.640Z,49.55
2022-11-20T05:12:09.003Z,49.54
2022-11-20T05:13:12.340Z,50.08
2022-11-20T05:14:14.800Z,49.66
2022-11-20T05:15:18.437Z,49.60
2022-11-20T05:16:22.907Z,50.14
2022-11-20T05:17:26.523Z,51.10
2022-11-20T05:18:30.297Z,50.43
2022-11-20T05:19:33.636Z,50.11
2022-11-20T05:20:37.397Z,50.07
2022-11-20T05:21:40.603Z,50.06
2022-11-20T05:22:43.153Z,49.93
2022-11-20T05:23:47.404Z,50.88
2022-11-20T05:24:49.610Z,51.17
2022-11-20T05:25:58.831Z,50.88
2022-11-20T05:27:01.746Z,50.88
2022-11-20T05:28:05.161Z,51.20
2022-11-20T05:29:07.485Z,52.53
2022-11-20T05:30:12.149Z,51.89
2022-11-20T05:31:15.860Z,52.37
2022-11-20T05:32:19.097Z,50.82
2022-11-20T05:33:21.983Z,50.30
2022-11-20T05:34:26.880Z,50.25
2022-11-20T05:35:29.145Z,52.42
2022-11-20T05:36:32.643Z,50.73
2022-11-20T05:37:34.939Z,50.90
2022-11-20T05:38:38.237Z,51.10
2022-11-20T05:39:40.510Z,49.06
2022-11-20T05:40:43.977Z,51.59
2022-11-20T05:41:47.312Z,50.41
2022-11-20T05:42:49.565Z,49.67
2022-11-20T05:43:53.638Z,49.36
2022-11-20T05:44:56.456Z,49.79
2022-11-20T05:46:00.041Z,50.44
2022-11-20T05:47:02.415Z,50.13
2022-11-20T05:48:06.025Z,50.07
2022-11-20T05:49:08.450Z,50.04
2022-11-20T05:50:13.444Z,49.51
2022-11-20T05:51:17.944Z,49.83
2022-11-20T05:52:21.503Z,50.91
2022-11-20T05:53:27.409Z,52.10
2022-11-20T05:54:31.439Z,51.77
2022-11-20T05:55:33.679Z,52.29
2022-11-20T05:56:37.476Z,52.52
2022-11-20T05:57:39.779Z,51.82
2022-11-20T05:58:43.613Z,52.10
2022-11-20T05:59:46.006Z,52.23
2022-11-20T06:00:49.611Z,51.74
2022-11-20T06:01:52.792Z,52.01
2022-11-20T06:02:56.498Z,53.06
2022-11-20T06:03:58.826Z,53.55
2022-11-20T06:05:02.305Z,53.47
2022-11-20T06:06:07.192Z,54.68
2022-11-20T06:07:10.549Z,54.40
2022-11-20T06:08:12.989Z,54.88
2022-11-20T06:09:16.473Z,54.64
2022-11-20T06:10:18.936Z,54.32
2022-11-20T06:11:22.365Z,55.25
2022-11-20T06:12:24.695Z,55.10
2022-11-20T06:13:27.956Z,55.03
2022-11-20T06:14:31.243Z,55.54
2022-11-20T06:15:33.591Z,54.16
2022-11-20T06:16:37.061Z,55.14
2022-11-20T06:17:39.303Z,56.32
2022-11-20T06:18:42.658Z,55.65
2022-11-20T06:19:44.819Z,55.05
2022-11-20T06:20:49.082Z,55.61
2022-11-20T06:21:53.052Z,54.64
2022-11-20T06:22:56.386Z,55.40
2022-11-20T06:23:58.850Z,56.40
2022-11-20T06:25:02.277Z,56.87
2022-11-20T06:26:06.184Z,56.48
2022-11-20T06:27:09.620Z,56.64
2022-11-20T06:28:11.927Z,56.83
2022-11-20T06:29:15.268Z,56.64
2022-11-20T06:30:17.617Z,56.13
2022-11-20T06:31:23.591Z,56.51
2022-11-20T06:32:25.883Z,56.31
2022-11-20T06:33:29.891Z,57.01
2022-11-20T06:34:32.244Z,56.30
2022-11-20T06:35:35.758Z,56.96
2022-11-20T06:36:39.245Z,55.84
2022-11-20T06:37:43.899Z,56.84
2022-11-20T06:38:47.654Z,56.93
2022-11-20T06:39:49.945Z,55.36
2022-11-20T06:40:53.282Z,56.13
2022-11-20T06:41:59.031Z,57.52
2022-11-20T06:43:01.753Z,56.75
2022-11-20T06:44:06.538Z,56.63
2022-11-20T06:45:10.303Z,56.18
2022-11-20T06:46:15.649Z,56.16
2022-11-20T06:47:18.051Z,56.14
2022-11-20T06:48:21.313Z,57.04
2022-11-20T06:49:23.769Z,56.17
2022-11-20T06:50:27.601Z,56.60
2022-11-20T06:51:29.799Z,56.30
2022-11-20T06:52:33.149Z,57.56
2022-11-20T06:53:37.800Z,57.06
2022-11-20T06:54:41.173Z,57.39
2022-11-20T06:55:44.883Z,57.56
2022-11-20T06:56:49.446Z,58.66
2022-11-20T06:57:55.843Z,58.21
2022-11-20T06:58:59.451Z,57.83
2022-11-20T07:00:01.796Z,58.56
2022-11-20T07:01:07.972Z,58.56
2022-11-20T07:02:11.908Z,58.38
2022-11-20T07:03:15.571Z,58.75
2022-11-20T07:04:17.906Z,58.59
2022-11-20T07:05:21.214Z,58.75
2022-11-20T07:06:24.600Z,59.50
2022-11-20T07:07:27.182Z,59.33
2022-11-20T07:08:30.572Z,58.73
2022-11-20T07:09:34.673Z,59.69
2022-11-20T07:10:38.292Z,59.76
2022-11-20T07:11:41.576Z,59.74
2022-11-20T07:12:43.825Z,59.89
2022-11-20T07:13:47.321Z,59.75
2022-11-20T07:14:49.777Z,59.44
2022-11-20T07:15:53.117Z,59.28
2022-11-20T07:16:55.280Z,59.08
2022-11-20T07:18:01.323Z,59.87
2022-11-20T07:19:03.517Z,59.90
2022-11-20T07:20:07.463Z,60.02
2022-11-20T07:21:11.581Z,60.46
2022-11-20T07:22:14.864Z,59.71
2022-11-20T07:23:17.228Z,59.57
2022-11-20T07:24:20.613Z,59.89
2022-11-20T07:25:24.908Z,59.54
2022-11-20T07:26:28.608Z,59.39
2022-11-20T07:27:31.104Z,59.46
2022-11-20T07:28:34.830Z,58.89
2022-11-20T07:29:37.284Z,58.76
2022-11-20T07:30:40.726Z,58.91
2022-11-20T07:31:43.138Z,58.95
2022-11-20T07:32:49.516Z,58.26
2022-11-20T07:33:52.800Z,58.73
2022-11-20T07:34:55.054Z,58.92
2022-11-20T07:36:00.415Z,58.51
2022-11-20T07:37:07.440Z,59.19
2022-11-20T07:38:13.648Z,59.11
2022-11-20T07:39:15.891Z,59.09
2022-11-20T07:40:19.842Z,58.72
2022-11-20T07:41:23.952Z,58.37
2022-11-20T07:42:27.157Z,58.53
2022-11-20T07:43:30.412Z,58.16
2022-11-20T07:44:32.681Z,57.99
2022-11-20T07:45:35.970Z,58.14
2022-11-20T07:46:38.203Z,59.01
2022-11-20T07:47:41.454Z,59.10
2022-11-20T07:48:44.688Z,59.57
2022-11-20T07:49:47.147Z,58.93
2022-11-20T07:50:50.466Z,59.30
2022-11-20T07:51:54.769Z,59.33
2022-11-20T07:53:04.788Z,58.33
2022-11-20T07:54:08.283Z,59.15
2022-11-20T07:55:11.490Z,58.90
2022-11-20T07:56:15.581Z,58.67
2022-11-20T07:57:20.468Z,59.00
2022-11-20T07:58:25.393Z,58.27
2022-11-20T07:59:28.771Z,58.39
2022-11-20T08:00:30.944Z,57.98
2022-11-20T08:01:34.288Z,56.91
2022-11-20T08:02:39.994Z,56.48
2022-11-20T08:03:43.201Z,56.31
2022-11-20T08:04:45.387Z,55.54
2022-11-20T08:05:48.765Z,55.29
2022-11-20T08:06:50.911Z,54.97
2022-11-20T08:07:54.107Z,54.77
2022-11-20T08:08:56.447Z,54.85
2022-11-20T08:09:59.926Z,54.85
2022-11-20T08:11:16.895Z,54.39
2022-11-20T08:12:40.375Z,53.68
2022-11-20T08:14:01.354Z,53.89
2022-11-20T08:15:09.808Z,53.27
2022-11-20T08:16:14.846Z,52.78
2022-11-20T08:17:18.099Z,52.55
2022-11-20T08:18:31.134Z,52.19
2022-11-20T08:19:35.290Z,52.12
2022-11-20T08:20:37.737Z,51.52
2022-11-20T08:21:41.322Z,51.48
2022-11-20T08:22:43.551Z,50.74
2022-11-20T08:23:47.053Z,50.52
2022-11-20T08:24:50.434Z,50.96
2022-11-20T08:25:52.972Z,50.16
2022-11-20T08:26:56.630Z,50.34
2022-11-20T08:28:08.950Z,50.36
2022-11-20T08:29:19.389Z,50.25
2022-11-20T08:30:21.794Z,50.72
2022-11-20T08:31:25.896Z,50.14
2022-11-20T08:32:27.992Z,48.89
2022-11-20T08:33:33.719Z,48.42
2022-11-20T08:34:36.962Z,47.84
2022-11-20T08:35:39.684Z,47.63
2022-11-20T08:36:42.823Z,47.89
2022-11-20T08:37:48.037Z,47.95
2022-11-20T08:38:52.294Z,47.75
2022-11-20T08:39:55.269Z,47.99
2022-11-20T08:41:17.100Z,49.47
2022-11-20T08:42:20.500Z,49.63
2022-11-20T08:43:24.105Z,48.65
2022-11-20T08:44:27.428Z,47.38
2022-11-20T08:45:33.985Z,47.87
2022-11-20T08:46:40.384Z,47.58
2022-11-20T08:47:43.130Z,47.03
2022-11-20T08:48:46.858Z,46.67
2022-11-20T08:49:50.311Z,46.33
2022-11-20T08:50:52.702Z,47.19
2022-11-20T08:51:56.467Z,47.40
2022-11-20T08:53:04.644Z,46.97
2022-11-20T08:54:09.639Z,46.76
2022-11-20T08:55:12.216Z,47.00
2022-11-20T08:56:16.027Z,47.82
2022-11-20T08:57:18.355Z,47.65
2022-11-20T08:58:21.792Z,47.43
2022-11-20T08:59:50.941Z,47.99
2022-11-20T09:00:48.970Z,47.66
2022-11-20T09:01:52.209Z,47.39
2022-11-20T09:02:54.358Z,48.59
2022-11-20T09:03:58.744Z,47.93
2022-11-20T09:05:03.372Z,48.80
2022-11-20T09:06:09.537Z,49.27
2022-11-20T09:07:12.187Z,49.06
2022-11-20T09:08:15.593Z,49.24
2022-11-20T09:09:19.327Z,49.72
2022-11-20T09:10:24.427Z,49.44
2022-11-20T09:11:28.356Z,48.85
2022-11-20T09:12:30.667Z,48.54
2022-11-20T09:13:35.594Z,49.00
2022-11-20T09:14:40.158Z,48.73
2022-11-20T09:15:42.425Z,48.25
2022-11-20T09:16:47.221Z,48.30
2022-11-20T09:17:52.731Z,48.79
2022-11-20T09:19:20.182Z,48.37
2022-11-20T09:20:19.892Z,48.26
2022-11-20T09:21:24.004Z,47.93
2022-11-20T09:22:27.882Z,47.96
2022-11-20T09:23:34.681Z,48.67
2022-11-20T09:24:38.226Z,48.85
2022-11-20T09:25:40.435Z,48.53
2022-11-20T09:26:43.717Z,48.65
2022-11-20T09:27:47.333Z,49.22
2022-11-20T09:28:55.343Z,49.57
2022-11-20T09:30:00.593Z,49.84
2022-11-20T09:31:07.423Z,49.40
2022-11-20T09:32:09.816Z,49.24
2022-11-20T09:33:13.548Z,49.16
2022-11-20T09:34:16.809Z,49.24
2022-11-20T09:35:20.545Z,49.78
2022-11-20T09:36:23.857Z,49.59
2022-11-20T09:37:27.096Z,49.34
2022-11-20T09:38:30.531Z,49.58
2022-11-20T09:39:33.927Z,49.97
2022-11-20T09:40:40.334Z,49.42
2022-11-20T09:42:05.956Z,49.67
2022-11-20T09:43:17.860Z,49.92
2022-11-20T09:44:34.332Z,50.26
2022-11-20T09:45:56.598Z,50.42
2022-11-20T09:47:08.842Z,49.63
2022-11-20T09:48:37.858Z,49.38
2022-11-20T09:49:56.598Z,50.68
2022-11-20T09:51:08.371Z,50.82
2022-11-20T09:52:24.193Z,50.98
2022-11-20T09:53:35.091Z,50.82
2022-11-20T09:54:41.510Z,51.19
2022-11-20T09:55:44.281Z,50.97
2022-11-20T09:56:52.285Z,50.91
2022-11-20T09:57:56.654Z,51.31
2022-11-20T09:59:03.604Z,51.58
2022-11-20T10:00:12.506Z,51.93
2022-11-20T10:01:20.422Z,51.74
2022-11-20T10:02:33.264Z,50.66
2022-11-20T10:03:44.217Z,50.93
2022-11-20T10:04:53.791Z,50.94
2022-11-20T10:05:57.757Z,50.67
2022-11-20T10:07:33.613Z,51.53
2022-11-20T10:08:34.039Z,50.26
2022-11-20T10:09:38.387Z,50.60
2022-11-20T10:10:47.355Z,50.26
2022-11-20T10:12:07.839Z,50.11
2022-11-20T10:13:31.047Z,49.44
2022-11-20T10:14:48.385Z,50.61
2022-11-20T10:16:05.653Z,50.88
2022-11-20T10:17:20.697Z,50.45
2022-11-20T10:18:41.056Z,49.99
2022-11-20T10:19:56.561Z,50.42
2022-11-20T10:21:08.495Z,49.58
2022-11-20T10:22:23.260Z,49.56
2022-11-20T10:23:44.696Z,49.98
2022-11-20T10:24:57.404Z,49.95
2022-11-20T10:26:03.328Z,50.07
2022-11-20T10:27:26.979Z,50.37
2022-11-20T10:28:39.663Z,49.07
2022-11-20T10:29:47.916Z,49.72
2022-11-20T10:30:57.965Z,48.96
2022-11-20T10:32:04.890Z,48.41
2022-11-20T10:33:19.206Z,48.88
2022-11-20T10:34:27.564Z,48.92
2022-11-20T10:35:39.064Z,47.56
2022-11-20T10:36:46.258Z,48.59
2022-11-20T10:37:55.560Z,48.95
2022-11-20T10:39:02.164Z,49.34
2022-11-20T10:40:19.764Z,47.85
2022-11-20T10:41:27.000Z,48.22
2022-11-20T10:42:37.917Z,47.87
2022-11-20T10:43:40.433Z,48.55
2022-11-20T10:45:06.894Z,48.63
2022-11-20T10:46:15.353Z,47.64
2022-11-20T10:47:22.100Z,47.47
2022-11-20T10:48:28.990Z,47.14
2022-11-20T10:49:35.415Z,47.43
2022-11-20T10:50:43.152Z,47.94
2022-11-20T10:52:01.652Z,48.11
2022-11-20T10:53:11.582Z,48.04
2022-11-20T10:54:23.074Z,48.06
2022-11-20T10:55:35.211Z,48.33
2022-11-20T10:56:48.475Z,47.07
2022-11-20T10:58:00.396Z,46.94
2022-11-20T10:59:37.946Z,47.45
2022-11-20T11:00:41.275Z,47.89
2022-11-20T11:01:43.983Z,48.00
2022-11-20T11:02:50.331Z,48.37
2022-11-20T11:03:57.128Z,48.54
2022-11-20T11:05:10.385Z,49.39
2022-11-20T11:06:28.336Z,48.97
2022-11-20T11:07:38.337Z,49.94
2022-11-20T11:08:41.292Z,49.16
2022-11-20T11:09:49.009Z,48.57
2022-11-20T11:10:56.102Z,49.69
2022-11-20T11:12:02.918Z,49.30
2022-11-20T11:13:09.420Z,49.65
2022-11-20T11:14:13.262Z,49.54
2022-11-20T11:15:27.798Z,49.01
2022-11-20T11:16:30.056Z,49.30
2022-11-20T11:17:34.696Z,49.86
2022-11-20T11:18:36.999Z,49.96
2022-11-20T11:19:41.655Z,49.72
2022-11-20T11:20:52.607Z,49.78
2022-11-20T11:21:57.803Z,49.08
2022-11-20T11:23:02.313Z,49.95
2022-11-20T11:24:34.841Z,50.14
2022-11-20T11:25:34.762Z,49.41
2022-11-20T11:26:37.155Z,49.81
2022-11-20T11:27:48.848Z,49.25
2022-11-20T11:28:56.549Z,49.50
2022-11-20T11:30:16.358Z,49.60
2022-11-20T11:31:25.983Z,50.39
2022-11-20T11:32:28.410Z,50.63
2022-11-20T11:33:34.656Z,49.16
2022-11-20T11:34:37.176Z,49.01
2022-11-20T11:35:51.417Z,49.29
2022-11-20T11:36:58.362Z,49.23
2022-11-20T11:38:08.126Z,49.83
2022-11-20T11:39:15.963Z,49.60
2022-11-20T11:40:25.184Z,49.77
2022-11-20T11:41:34.245Z,50.54
2022-11-20T11:42:36.961Z,50.64
2022-11-20T11:43:58.823Z,50.03
2022-11-20T11:45:09.343Z,49.30
2022-11-20T11:46:33.113Z,48.95
2022-11-20T11:47:46.308Z,48.73
2022-11-20T11:48:58.480Z,48.61
2022-11-20T11:50:18.122Z,50.07
2022-11-20T11:51:23.334Z,49.99
2022-11-20T11:52:27.865Z,50.00
2022-11-20T11:53:32.473Z,49.94
2022-11-20T11:54:39.960Z,49.78
2022-11-20T11:55:48.008Z,49.90
2022-11-20T11:56:52.232Z,49.93
2022-11-20T11:58:03.157Z,49.89
2022-11-20T11:59:14.716Z,49.68
2022-11-20T12:00:22.094Z,50.21
2022-11-20T12:01:33.935Z,50.30
2022-11-20T12:02:40.937Z,48.85
2022-11-20T12:04:00.575Z,49.31
2022-11-20T12:05:15.556Z,49.96
2022-11-20T12:06:18.784Z,50.29
2022-11-20T12:07:46.582Z,50.74
2022-11-20T12:08:56.132Z,50.41
2022-11-20T12:09:59.826Z,50.72
2022-11-20T12:11:08.750Z,50.44
2022-11-20T12:12:16.629Z,50.95
2022-11-20T12:13:40.364Z,50.30
2022-11-20T12:14:48.666Z,49.17
2022-11-20T12:15:51.249Z,49.99
2022-11-20T12:16:56.869Z,50.37
2022-11-20T12:17:59.111Z,49.47
2022-11-20T12:19:02.591Z,49.18
2022-11-20T12:20:13.219Z,48.81
2022-11-20T12:21:25.508Z,49.13
2022-11-20T12:22:35.578Z,49.32
2022-11-20T12:23:47.635Z,49.24
2022-11-20T12:24:57.658Z,49.58
2022-11-20T12:26:07.659Z,49.11
2022-11-20T12:27:34.723Z,49.31
2022-11-20T12:28:51.328Z,49.70
2022-11-20T12:30:01.027Z,49.81
2022-11-20T12:31:23.455Z,49.43
2022-11-20T12:32:52.606Z,48.65
2022-11-20T12:34:12.085Z,48.92
2022-11-20T12:35:32.783Z,49.11
2022-11-20T12:36:43.248Z,49.60
2022-11-20T12:37:59.574Z,49.38
2022-11-20T12:39:14.252Z,48.90
2022-11-20T12:40:31.070Z,49.09
2022-11-20T12:42:07.555Z,48.69
2022-11-20T12:43:39.004Z,48.40
2022-11-20T12:45:11.080Z,48.62
2022-11-20T12:46:38.483Z,48.57
2022-11-20T12:48:14.749Z,49.83
2022-11-20T12:49:38.555Z,49.04
2022-11-20T12:51:13.306Z,47.54
2022-11-20T12:52:33.215Z,47.62
2022-11-20T12:53:44.561Z,47.86
2022-11-20T12:55:12.116Z,47.47
2022-11-20T12:56:27.966Z,47.96
2022-11-20T12:57:38.531Z,46.97
2022-11-20T12:58:50.232Z,46.92
2022-11-20T13:00:15.080Z,46.83
2022-11-20T13:01:41.550Z,46.88
2022-11-20T13:03:22.948Z,47.32
2022-11-20T13:04:50.635Z,46.62
2022-11-20T13:06:01.799Z,46.70
2022-11-20T13:07:06.909Z,46.84
2022-11-20T13:08:21.905Z,48.21
2022-11-20T13:09:27.298Z,47.39
2022-11-20T13:10:38.591Z,48.11
2022-11-20T13:11:47.262Z,47.60
2022-11-20T13:12:56.084Z,48.71
2022-11-20T13:14:22.244Z,49.03
2022-11-20T13:15:37.710Z,47.84
2022-11-20T13:16:48.591Z,47.60
2022-11-20T13:17:56.756Z,47.35
2022-11-20T13:19:04.783Z,46.28
2022-11-20T13:20:13.540Z,46.25
2022-11-20T13:21:18.648Z,44.39
2022-11-20T13:22:28.388Z,44.04
2022-11-20T13:23:31.869Z,44.12
2022-11-20T13:24:35.463Z,43.27
2022-11-20T13:25:40.245Z,43.50
2022-11-20T13:26:42.578Z,43.78
2022-11-20T13:27:50.129Z,43.77
2022-11-20T13:29:06.220Z,44.37
2022-11-20T13:30:20.278Z,44.73
2022-11-20T13:31:32.242Z,45.18
2022-11-20T13:32:35.626Z,45.71
2022-11-20T13:33:39.414Z,46.43
2022-11-20T13:34:54.158Z,46.42
2022-11-20T13:35:59.035Z,47.71
2022-11-20T13:37:04.905Z,48.77
2022-11-20T13:38:09.963Z,49.84
2022-11-20T13:39:13.354Z,50.37
2022-11-20T13:40:24.137Z,49.88
2022-11-20T13:41:32.543Z,50.32
2022-11-20T13:42:37.783Z,49.94
2022-11-20T13:43:44.079Z,49.51
2022-11-20T13:44:52.088Z,49.37
2022-11-20T13:46:02.671Z,48.54
2022-11-20T13:47:20.820Z,49.11
2022-11-20T13:48:25.725Z,48.95
2022-11-20T13:49:33.994Z,49.07
2022-11-20T13:50:47.379Z,48.36
2022-11-20T13:51:53.669Z,48.25
2022-11-20T13:53:03.441Z,48.71
2022-11-20T13:54:36.588Z,47.65
2022-11-20T13:55:47.531Z,48.06
2022-11-20T13:57:01.596Z,47.55
2022-11-20T13:58:33.978Z,46.58
2022-11-20T13:59:58.674Z,47.42
2022-11-20T14:01:10.880Z,46.71
2022-11-20T14:02:15.917Z,47.55
2022-11-20T14:03:50.807Z,46.51
2022-11-20T14:04:50.272Z,45.83
2022-11-20T14:05:56.976Z,46.84
2022-11-20T14:06:59.905Z,47.53
2022-11-20T14:08:05.993Z,47.80
2022-11-20T14:09:14.276Z,46.44
2022-11-20T14:10:28.488Z,45.93
2022-11-20T14:11:36.883Z,45.56
2022-11-20T14:12:39.092Z,45.52
2022-11-20T14:13:52.677Z,45.49
2022-11-20T14:14:56.797Z,46.01
2022-11-20T14:16:00.599Z,46.22
2022-11-20T14:17:10.956Z,45.70
2022-11-20T14:18:15.382Z,46.49